sensor_id;sensor_type;location;lat;lon;timestamp;P1;durP1;ratioP1;P2;durP2;ratioP2
39020;SDS011;25188;51.958;5.842;2022-07-29T00:02:02;1.67;;;0.40;;
39020;SDS011;25188;51.958;5.842;2022-07-29T00:04:28;2.08;;;0.50;;
39020;SDS011;25188;51.958;5.842;2022-07-29T00:06:53;6.00;;;0.50;;
39020;SDS011;25188;51.958;5.842;2022-07-29T00:09:19;3.95;;;0.60;;
39020;SDS011;25188;51.958;5.842;2022-07-29T00:11:44;2.30;;;0.52;;
39020;SDS011;25188;51.958;5.842;2022-07-29T00:14:10;2.30;;;0.57;;
39020;SDS011;25188;51.958;5.842;2022-07-29T00:16:35;3.13;;;0.75;;
39020;SDS011;25188;51.958;5.842;2022-07-29T00:19:01;5.55;;;0.40;;
39020;SDS011;25188;51.958;5.842;2022-07-29T00:21:27;4.03;;;0.50;;
39020;SDS011;25188;51.958;5.842;2022-07-29T00:23:53;1.95;;;0.55;;
39020;SDS011;25188;51.958;5.842;2022-07-29T00:26:19;1.58;;;0.50;;
39020;SDS011;25188;51.958;5.842;2022-07-29T00:28:44;4.35;;;0.60;;
39020;SDS011;25188;51.958;5.842;2022-07-29T00:31:10;3.95;;;0.50;;
39020;SDS011;25188;51.958;5.842;2022-07-29T00:33:35;4.30;;;0.60;;
39020;SDS011;25188;51.958;5.842;2022-07-29T00:36:01;3.00;;;0.60;;
39020;SDS011;25188;51.958;5.842;2022-07-29T00:38:27;2.85;;;0.50;;
39020;SDS011;25188;51.958;5.842;2022-07-29T00:40:52;2.22;;;0.60;;
39020;SDS011;25188;51.958;5.842;2022-07-29T00:43:18;2.72;;;0.50;;
39020;SDS011;25188;51.958;5.842;2022-07-29T00:45:43;1.10;;;0.50;;
39020;SDS011;25188;51.958;5.842;2022-07-29T00:48:09;3.10;;;0.43;;
39020;SDS011;25188;51.958;5.842;2022-07-29T00:50:35;3.67;;;0.47;;
39020;SDS011;25188;51.958;5.842;2022-07-29T00:53:02;1.70;;;0.50;;
39020;SDS011;25188;51.958;5.842;2022-07-29T00:55:29;2.63;;;0.60;;
39020;SDS011;25188;51.958;5.842;2022-07-29T00:57:55;3.53;;;0.50;;
39020;SDS011;25188;51.958;5.842;2022-07-29T01:00:24;2.47;;;0.47;;
39020;SDS011;25188;51.958;5.842;2022-07-29T01:02:51;2.45;;;0.70;;
39020;SDS011;25188;51.958;5.842;2022-07-29T01:05:17;2.20;;;0.60;;
39020;SDS011;25188;51.958;5.842;2022-07-29T01:07:47;4.13;;;0.47;;
39020;SDS011;25188;51.958;5.842;2022-07-29T01:10:16;2.35;;;0.50;;
39020;SDS011;25188;51.958;5.842;2022-07-29T01:12:43;3.67;;;0.60;;
39020;SDS011;25188;51.958;5.842;2022-07-29T01:15:11;4.88;;;0.70;;
39020;SDS011;25188;51.958;5.842;2022-07-29T01:25:45;3.22;;;0.60;;
39020;SDS011;25188;51.958;5.842;2022-07-29T01:28:51;4.30;;;0.63;;
39020;SDS011;25188;51.958;5.842;2022-07-29T01:31:28;3.15;;;0.50;;
39020;SDS011;25188;51.958;5.842;2022-07-29T01:34:05;1.88;;;0.60;;
39020;SDS011;25188;51.958;5.842;2022-07-29T01:36:35;1.92;;;0.52;;
39020;SDS011;25188;51.958;5.842;2022-07-29T01:39:07;2.90;;;0.60;;
39020;SDS011;25188;51.958;5.842;2022-07-29T01:41:38;1.77;;;0.60;;
39020;SDS011;25188;51.958;5.842;2022-07-29T01:44:22;1.88;;;0.63;;
39020;SDS011;25188;51.958;5.842;2022-07-29T01:47:00;2.28;;;0.70;;
39020;SDS011;25188;51.958;5.842;2022-07-29T01:49:34;2.28;;;0.60;;
39020;SDS011;25188;51.958;5.842;2022-07-29T01:52:05;3.65;;;0.68;;
39020;SDS011;25188;51.958;5.842;2022-07-29T01:54:43;3.50;;;0.52;;
39020;SDS011;25188;51.958;5.842;2022-07-29T01:57:14;2.75;;;0.65;;
39020;SDS011;25188;51.958;5.842;2022-07-29T01:59:45;3.50;;;0.63;;
39020;SDS011;25188;51.958;5.842;2022-07-29T02:02:12;5.07;;;0.80;;
39020;SDS011;25188;51.958;5.842;2022-07-29T02:04:40;2.50;;;0.70;;
39020;SDS011;25188;51.958;5.842;2022-07-29T02:07:08;3.45;;;0.50;;
39020;SDS011;25188;51.958;5.842;2022-07-29T02:09:38;3.53;;;0.70;;
39020;SDS011;25188;51.958;5.842;2022-07-29T02:12:06;3.00;;;0.70;;
39020;SDS011;25188;51.958;5.842;2022-07-29T02:14:34;1.95;;;0.50;;
39020;SDS011;25188;51.958;5.842;2022-07-29T02:17:03;3.47;;;0.77;;
39020;SDS011;25188;51.958;5.842;2022-07-29T02:19:29;2.50;;;0.40;;
39020;SDS011;25188;51.958;5.842;2022-07-29T02:21:57;2.97;;;0.63;;
39020;SDS011;25188;51.958;5.842;2022-07-29T02:24:25;1.42;;;0.60;;
39020;SDS011;25188;51.958;5.842;2022-07-29T02:26:53;3.28;;;0.43;;
39020;SDS011;25188;51.958;5.842;2022-07-29T02:29:22;2.58;;;0.52;;
39020;SDS011;25188;51.958;5.842;2022-07-29T02:31:50;2.15;;;0.70;;
39020;SDS011;25188;51.958;5.842;2022-07-29T02:34:18;4.53;;;0.60;;
39020;SDS011;25188;51.958;5.842;2022-07-29T02:36:45;2.28;;;0.60;;
39020;SDS011;25188;51.958;5.842;2022-07-29T02:39:13;2.75;;;0.50;;
39020;SDS011;25188;51.958;5.842;2022-07-29T02:41:41;3.28;;;0.80;;
39020;SDS011;25188;51.958;5.842;2022-07-29T02:44:20;2.22;;;0.57;;
39020;SDS011;25188;51.958;5.842;2022-07-29T02:46:53;2.03;;;0.55;;
39020;SDS011;25188;51.958;5.842;2022-07-29T02:52:18;4.50;;;0.85;;
39020;SDS011;25188;51.958;5.842;2022-07-29T02:54:55;3.20;;;0.70;;
39020;SDS011;25188;51.958;5.842;2022-07-29T03:00:01;4.03;;;0.52;;
39020;SDS011;25188;51.958;5.842;2022-07-29T03:02:31;3.53;;;0.80;;
39020;SDS011;25188;51.958;5.842;2022-07-29T03:05:18;2.78;;;0.88;;
39020;SDS011;25188;51.958;5.842;2022-07-29T03:07:46;3.22;;;0.70;;
39020;SDS011;25188;51.958;5.842;2022-07-29T03:10:16;2.28;;;0.85;;
39020;SDS011;25188;51.958;5.842;2022-07-29T03:12:42;6.68;;;1.20;;
39020;SDS011;25188;51.958;5.842;2022-07-29T03:15:09;3.20;;;1.05;;
39020;SDS011;25188;51.958;5.842;2022-07-29T03:17:35;2.25;;;0.70;;
39020;SDS011;25188;51.958;5.842;2022-07-29T03:20:02;1.92;;;0.95;;
39020;SDS011;25188;51.958;5.842;2022-07-29T03:22:29;3.55;;;1.00;;
39020;SDS011;25188;51.958;5.842;2022-07-29T03:24:55;5.32;;;1.45;;
39020;SDS011;25188;51.958;5.842;2022-07-29T03:27:20;4.40;;;1.02;;
39020;SDS011;25188;51.958;5.842;2022-07-29T03:29:46;4.65;;;1.00;;
39020;SDS011;25188;51.958;5.842;2022-07-29T03:32:12;5.72;;;1.08;;
39020;SDS011;25188;51.958;5.842;2022-07-29T03:34:37;6.15;;;1.15;;
39020;SDS011;25188;51.958;5.842;2022-07-29T03:37:04;2.10;;;0.85;;
39020;SDS011;25188;51.958;5.842;2022-07-29T03:39:31;3.25;;;1.00;;
39020;SDS011;25188;51.958;5.842;2022-07-29T03:42:00;2.80;;;0.90;;
39020;SDS011;25188;51.958;5.842;2022-07-29T03:44:27;2.55;;;0.82;;
39020;SDS011;25188;51.958;5.842;2022-07-29T03:46:53;3.67;;;0.82;;
39020;SDS011;25188;51.958;5.842;2022-07-29T03:49:20;4.22;;;1.15;;
39020;SDS011;25188;51.958;5.842;2022-07-29T03:51:48;2.33;;;0.90;;
39020;SDS011;25188;51.958;5.842;2022-07-29T03:54:14;5.38;;;1.30;;
39020;SDS011;25188;51.958;5.842;2022-07-29T03:56:40;3.50;;;1.35;;
39020;SDS011;25188;51.958;5.842;2022-07-29T03:59:11;3.13;;;0.93;;
39020;SDS011;25188;51.958;5.842;2022-07-29T04:01:37;6.90;;;1.60;;
39020;SDS011;25188;51.958;5.842;2022-07-29T04:04:04;3.63;;;1.20;;
39020;SDS011;25188;51.958;5.842;2022-07-29T04:06:40;3.25;;;0.95;;
39020;SDS011;25188;51.958;5.842;2022-07-29T04:09:06;4.75;;;1.67;;
39020;SDS011;25188;51.958;5.842;2022-07-29T04:11:32;3.60;;;1.42;;
39020;SDS011;25188;51.958;5.842;2022-07-29T04:13:59;2.50;;;1.25;;
39020;SDS011;25188;51.958;5.842;2022-07-29T04:16:24;5.55;;;1.60;;
39020;SDS011;25188;51.958;5.842;2022-07-29T04:18:50;3.22;;;1.20;;
39020;SDS011;25188;51.958;5.842;2022-07-29T04:21:15;6.22;;;1.58;;
39020;SDS011;25188;51.958;5.842;2022-07-29T04:23:41;4.93;;;1.42;;
39020;SDS011;25188;51.958;5.842;2022-07-29T04:26:10;4.45;;;1.40;;
39020;SDS011;25188;51.958;5.842;2022-07-29T04:28:35;6.10;;;1.63;;
39020;SDS011;25188;51.958;5.842;2022-07-29T04:31:03;4.07;;;1.40;;
39020;SDS011;25188;51.958;5.842;2022-07-29T04:33:28;4.40;;;1.70;;
39020;SDS011;25188;51.958;5.842;2022-07-29T04:35:54;1.85;;;1.10;;
39020;SDS011;25188;51.958;5.842;2022-07-29T04:38:19;4.28;;;1.70;;
39020;SDS011;25188;51.958;5.842;2022-07-29T04:40:46;5.40;;;1.58;;
39020;SDS011;25188;51.958;5.842;2022-07-29T04:43:12;4.35;;;1.88;;
39020;SDS011;25188;51.958;5.842;2022-07-29T04:45:38;5.57;;;1.60;;
39020;SDS011;25188;51.958;5.842;2022-07-29T04:48:04;3.05;;;1.35;;
39020;SDS011;25188;51.958;5.842;2022-07-29T04:50:30;3.78;;;1.13;;
39020;SDS011;25188;51.958;5.842;2022-07-29T04:52:55;3.58;;;1.52;;
39020;SDS011;25188;51.958;5.842;2022-07-29T04:55:21;7.15;;;2.20;;
39020;SDS011;25188;51.958;5.842;2022-07-29T04:57:46;3.83;;;1.70;;
39020;SDS011;25188;51.958;5.842;2022-07-29T05:00:12;7.13;;;2.22;;
39020;SDS011;25188;51.958;5.842;2022-07-29T05:02:38;2.83;;;1.20;;
39020;SDS011;25188;51.958;5.842;2022-07-29T05:05:04;3.60;;;1.50;;
39020;SDS011;25188;51.958;5.842;2022-07-29T05:07:30;6.18;;;1.75;;
39020;SDS011;25188;51.958;5.842;2022-07-29T05:09:55;2.63;;;1.00;;
39020;SDS011;25188;51.958;5.842;2022-07-29T05:12:22;4.65;;;1.30;;
39020;SDS011;25188;51.958;5.842;2022-07-29T05:14:48;5.20;;;1.30;;
39020;SDS011;25188;51.958;5.842;2022-07-29T05:17:14;4.38;;;1.55;;
39020;SDS011;25188;51.958;5.842;2022-07-29T05:19:39;4.40;;;1.27;;
39020;SDS011;25188;51.958;5.842;2022-07-29T05:22:05;3.22;;;1.23;;
39020;SDS011;25188;51.958;5.842;2022-07-29T05:24:31;5.00;;;1.33;;
39020;SDS011;25188;51.958;5.842;2022-07-29T05:26:56;3.03;;;1.55;;
39020;SDS011;25188;51.958;5.842;2022-07-29T05:29:22;4.60;;;1.40;;
39020;SDS011;25188;51.958;5.842;2022-07-29T05:31:47;4.55;;;1.63;;
39020;SDS011;25188;51.958;5.842;2022-07-29T05:34:13;2.22;;;1.08;;
39020;SDS011;25188;51.958;5.842;2022-07-29T05:36:39;4.45;;;1.48;;
39020;SDS011;25188;51.958;5.842;2022-07-29T05:39:04;3.47;;;1.38;;
39020;SDS011;25188;51.958;5.842;2022-07-29T05:41:33;3.08;;;1.20;;
39020;SDS011;25188;51.958;5.842;2022-07-29T05:43:59;3.55;;;1.77;;
39020;SDS011;25188;51.958;5.842;2022-07-29T05:46:24;2.33;;;1.08;;
39020;SDS011;25188;51.958;5.842;2022-07-29T05:48:50;3.38;;;1.10;;
39020;SDS011;25188;51.958;5.842;2022-07-29T05:51:15;7.18;;;1.92;;
39020;SDS011;25188;51.958;5.842;2022-07-29T05:53:41;2.03;;;1.00;;
39020;SDS011;25188;51.958;5.842;2022-07-29T05:56:07;5.20;;;1.40;;
39020;SDS011;25188;51.958;5.842;2022-07-29T05:58:32;2.85;;;1.20;;
39020;SDS011;25188;51.958;5.842;2022-07-29T06:00:58;3.72;;;1.40;;
39020;SDS011;25188;51.958;5.842;2022-07-29T06:03:24;2.97;;;1.33;;
39020;SDS011;25188;51.958;5.842;2022-07-29T06:05:50;2.92;;;1.40;;
39020;SDS011;25188;51.958;5.842;2022-07-29T06:08:16;3.25;;;1.48;;
39020;SDS011;25188;51.958;5.842;2022-07-29T06:10:42;6.30;;;1.05;;
39020;SDS011;25188;51.958;5.842;2022-07-29T06:13:08;3.78;;;1.00;;
39020;SDS011;25188;51.958;5.842;2022-07-29T06:15:33;3.67;;;1.20;;
39020;SDS011;25188;51.958;5.842;2022-07-29T06:17:59;2.65;;;1.20;;
39020;SDS011;25188;51.958;5.842;2022-07-29T06:20:25;3.67;;;1.17;;
39020;SDS011;25188;51.958;5.842;2022-07-29T06:22:54;4.70;;;1.55;;
39020;SDS011;25188;51.958;5.842;2022-07-29T06:25:20;5.95;;;1.42;;
39020;SDS011;25188;51.958;5.842;2022-07-29T06:27:45;3.03;;;1.10;;
39020;SDS011;25188;51.958;5.842;2022-07-29T06:30:11;5.22;;;1.90;;
39020;SDS011;25188;51.958;5.842;2022-07-29T06:32:37;5.00;;;1.63;;
39020;SDS011;25188;51.958;5.842;2022-07-29T06:35:03;3.63;;;1.30;;
39020;SDS011;25188;51.958;5.842;2022-07-29T06:37:29;3.30;;;1.00;;
39020;SDS011;25188;51.958;5.842;2022-07-29T06:39:54;4.70;;;1.48;;
39020;SDS011;25188;51.958;5.842;2022-07-29T06:42:44;6.00;;;1.23;;
39020;SDS011;25188;51.958;5.842;2022-07-29T06:45:10;2.90;;;1.33;;
39020;SDS011;25188;51.958;5.842;2022-07-29T06:47:36;2.92;;;1.10;;
39020;SDS011;25188;51.958;5.842;2022-07-29T06:50:03;2.67;;;0.98;;
39020;SDS011;25188;51.958;5.842;2022-07-29T06:52:29;3.35;;;1.20;;
39020;SDS011;25188;51.958;5.842;2022-07-29T06:54:55;3.92;;;1.15;;
39020;SDS011;25188;51.958;5.842;2022-07-29T06:57:20;4.13;;;1.17;;
39020;SDS011;25188;51.958;5.842;2022-07-29T06:59:47;2.97;;;1.10;;
39020;SDS011;25188;51.958;5.842;2022-07-29T07:02:12;2.33;;;1.00;;
39020;SDS011;25188;51.958;5.842;2022-07-29T07:04:38;4.47;;;1.20;;
39020;SDS011;25188;51.958;5.842;2022-07-29T07:07:04;3.53;;;1.15;;
39020;SDS011;25188;51.958;5.842;2022-07-29T07:09:30;2.83;;;0.90;;
39020;SDS011;25188;51.958;5.842;2022-07-29T07:11:55;2.50;;;0.80;;
39020;SDS011;25188;51.958;5.842;2022-07-29T07:14:21;3.83;;;1.10;;
39020;SDS011;25188;51.958;5.842;2022-07-29T07:16:47;4.03;;;1.08;;
39020;SDS011;25188;51.958;5.842;2022-07-29T07:19:12;2.72;;;1.08;;
39020;SDS011;25188;51.958;5.842;2022-07-29T07:21:38;2.63;;;1.05;;
39020;SDS011;25188;51.958;5.842;2022-07-29T07:24:04;2.47;;;0.90;;
39020;SDS011;25188;51.958;5.842;2022-07-29T07:26:30;3.22;;;1.02;;
39020;SDS011;25188;51.958;5.842;2022-07-29T07:28:55;6.10;;;1.02;;
39020;SDS011;25188;51.958;5.842;2022-07-29T07:31:21;5.72;;;1.20;;
39020;SDS011;25188;51.958;5.842;2022-07-29T07:33:47;3.58;;;1.30;;
39020;SDS011;25188;51.958;5.842;2022-07-29T07:36:13;4.22;;;0.95;;
39020;SDS011;25188;51.958;5.842;2022-07-29T07:38:38;3.40;;;0.98;;
39020;SDS011;25188;51.958;5.842;2022-07-29T07:41:04;4.50;;;1.00;;
39020;SDS011;25188;51.958;5.842;2022-07-29T07:43:30;3.20;;;1.23;;
39020;SDS011;25188;51.958;5.842;2022-07-29T07:45:55;2.95;;;1.13;;
39020;SDS011;25188;51.958;5.842;2022-07-29T07:48:21;4.25;;;1.02;;
39020;SDS011;25188;51.958;5.842;2022-07-29T07:50:47;3.60;;;1.15;;
39020;SDS011;25188;51.958;5.842;2022-07-29T07:53:14;4.25;;;1.23;;
39020;SDS011;25188;51.958;5.842;2022-07-29T07:55:40;3.65;;;0.98;;
39020;SDS011;25188;51.958;5.842;2022-07-29T07:58:07;3.70;;;1.33;;
39020;SDS011;25188;51.958;5.842;2022-07-29T08:00:33;2.85;;;0.90;;
39020;SDS011;25188;51.958;5.842;2022-07-29T08:02:59;4.28;;;0.98;;
39020;SDS011;25188;51.958;5.842;2022-07-29T08:05:24;2.97;;;1.02;;
39020;SDS011;25188;51.958;5.842;2022-07-29T08:07:50;2.97;;;0.82;;
39020;SDS011;25188;51.958;5.842;2022-07-29T08:10:16;2.20;;;0.90;;
39020;SDS011;25188;51.958;5.842;2022-07-29T08:13:04;5.18;;;1.08;;
39020;SDS011;25188;51.958;5.842;2022-07-29T08:15:31;2.35;;;0.70;;
39020;SDS011;25188;51.958;5.842;2022-07-29T08:17:57;5.43;;;1.00;;
39020;SDS011;25188;51.958;5.842;2022-07-29T08:20:22;10.30;;;1.30;;
39020;SDS011;25188;51.958;5.842;2022-07-29T08:22:48;2.72;;;1.02;;
39020;SDS011;25188;51.958;5.842;2022-07-29T08:25:13;2.55;;;1.25;;
39020;SDS011;25188;51.958;5.842;2022-07-29T08:27:39;4.03;;;0.90;;
39020;SDS011;25188;51.958;5.842;2022-07-29T08:30:05;2.63;;;0.98;;
39020;SDS011;25188;51.958;5.842;2022-07-29T08:32:31;2.88;;;0.82;;
39020;SDS011;25188;51.958;5.842;2022-07-29T08:34:57;3.15;;;1.20;;
39020;SDS011;25188;51.958;5.842;2022-07-29T08:37:22;6.45;;;1.10;;
39020;SDS011;25188;51.958;5.842;2022-07-29T08:39:48;3.45;;;1.15;;
39020;SDS011;25188;51.958;5.842;2022-07-29T08:42:14;2.30;;;0.77;;
39020;SDS011;25188;51.958;5.842;2022-07-29T08:44:41;4.45;;;1.10;;
39020;SDS011;25188;51.958;5.842;2022-07-29T08:47:07;4.53;;;1.30;;
39020;SDS011;25188;51.958;5.842;2022-07-29T08:49:34;6.18;;;0.90;;
39020;SDS011;25188;51.958;5.842;2022-07-29T08:52:01;5.63;;;1.00;;
39020;SDS011;25188;51.958;5.842;2022-07-29T08:54:27;6.88;;;1.30;;
39020;SDS011;25188;51.958;5.842;2022-07-29T08:56:53;3.20;;;0.80;;
39020;SDS011;25188;51.958;5.842;2022-07-29T08:59:22;2.80;;;1.10;;
39020;SDS011;25188;51.958;5.842;2022-07-29T09:01:50;3.70;;;0.95;;
39020;SDS011;25188;51.958;5.842;2022-07-29T09:04:19;5.28;;;1.23;;
39020;SDS011;25188;51.958;5.842;2022-07-29T09:06:46;4.20;;;0.98;;
39020;SDS011;25188;51.958;5.842;2022-07-29T09:09:16;4.18;;;1.05;;
39020;SDS011;25188;51.958;5.842;2022-07-29T09:11:42;4.88;;;1.00;;
39020;SDS011;25188;51.958;5.842;2022-07-29T09:14:08;5.45;;;1.17;;
39020;SDS011;25188;51.958;5.842;2022-07-29T09:16:44;3.42;;;1.00;;
39020;SDS011;25188;51.958;5.842;2022-07-29T09:19:41;1.75;;;0.80;;
39020;SDS011;25188;51.958;5.842;2022-07-29T09:22:06;2.30;;;1.00;;
39020;SDS011;25188;51.958;5.842;2022-07-29T09:26:59;4.07;;;1.05;;
39020;SDS011;25188;51.958;5.842;2022-07-29T09:29:26;4.72;;;1.10;;
39020;SDS011;25188;51.958;5.842;2022-07-29T09:31:53;3.88;;;1.10;;
39020;SDS011;25188;51.958;5.842;2022-07-29T09:34:24;2.28;;;0.90;;
39020;SDS011;25188;51.958;5.842;2022-07-29T09:36:53;2.72;;;0.90;;
39020;SDS011;25188;51.958;5.842;2022-07-29T09:41:55;4.10;;;0.90;;
39020;SDS011;25188;51.958;5.842;2022-07-29T09:44:22;4.28;;;0.98;;
39020;SDS011;25188;51.958;5.842;2022-07-29T09:46:53;4.18;;;0.95;;
39020;SDS011;25188;51.958;5.842;2022-07-29T09:49:24;3.42;;;1.30;;
39020;SDS011;25188;51.958;5.842;2022-07-29T09:54:45;3.45;;;0.82;;
39020;SDS011;25188;51.958;5.842;2022-07-29T10:00:06;2.38;;;0.80;;
39020;SDS011;25188;51.958;5.842;2022-07-29T10:02:35;3.70;;;0.73;;
39020;SDS011;25188;51.958;5.842;2022-07-29T10:05:03;4.07;;;0.90;;
39020;SDS011;25188;51.958;5.842;2022-07-29T10:07:47;2.63;;;0.80;;
39020;SDS011;25188;51.958;5.842;2022-07-29T10:10:21;2.05;;;0.70;;
39020;SDS011;25188;51.958;5.842;2022-07-29T10:15:21;3.25;;;0.80;;
39020;SDS011;25188;51.958;5.842;2022-07-29T10:17:55;4.13;;;0.90;;
39020;SDS011;25188;51.958;5.842;2022-07-29T10:20:22;3.20;;;0.90;;
39020;SDS011;25188;51.958;5.842;2022-07-29T10:22:49;2.47;;;0.90;;
39020;SDS011;25188;51.958;5.842;2022-07-29T10:25:15;5.00;;;0.95;;
39020;SDS011;25188;51.958;5.842;2022-07-29T10:27:43;2.50;;;0.90;;
39020;SDS011;25188;51.958;5.842;2022-07-29T10:30:10;3.45;;;1.20;;
39020;SDS011;25188;51.958;5.842;2022-07-29T10:32:44;3.67;;;1.10;;
39020;SDS011;25188;51.958;5.842;2022-07-29T10:43:51;3.90;;;1.00;;
39020;SDS011;25188;51.958;5.842;2022-07-29T10:46:21;5.07;;;1.10;;
39020;SDS011;25188;51.958;5.842;2022-07-29T10:51:51;2.75;;;1.35;;
39020;SDS011;25188;51.958;5.842;2022-07-29T10:54:17;2.00;;;0.68;;
39020;SDS011;25188;51.958;5.842;2022-07-29T10:56:44;4.05;;;1.15;;
39020;SDS011;25188;51.958;5.842;2022-07-29T11:01:44;4.90;;;1.02;;
39020;SDS011;25188;51.958;5.842;2022-07-29T11:04:14;2.65;;;1.00;;
39020;SDS011;25188;51.958;5.842;2022-07-29T11:09:28;5.13;;;1.08;;
39020;SDS011;25188;51.958;5.842;2022-07-29T11:11:55;1.80;;;0.60;;
39020;SDS011;25188;51.958;5.842;2022-07-29T11:17:19;4.30;;;1.15;;
39020;SDS011;25188;51.958;5.842;2022-07-29T11:19:45;3.40;;;0.80;;
39020;SDS011;25188;51.958;5.842;2022-07-29T11:22:14;5.97;;;1.13;;
39020;SDS011;25188;51.958;5.842;2022-07-29T11:25:12;2.42;;;0.80;;
39020;SDS011;25188;51.958;5.842;2022-07-29T11:27:43;4.75;;;0.70;;
39020;SDS011;25188;51.958;5.842;2022-07-29T11:30:09;3.15;;;0.80;;
39020;SDS011;25188;51.958;5.842;2022-07-29T11:32:40;2.13;;;0.73;;
39020;SDS011;25188;51.958;5.842;2022-07-29T11:35:18;4.40;;;0.70;;
39020;SDS011;25188;51.958;5.842;2022-07-29T11:37:46;2.38;;;0.50;;
39020;SDS011;25188;51.958;5.842;2022-07-29T11:43:47;2.17;;;0.57;;
39020;SDS011;25188;51.958;5.842;2022-07-29T11:49:11;4.40;;;0.55;;
39020;SDS011;25188;51.958;5.842;2022-07-29T11:51:37;2.55;;;0.63;;
39020;SDS011;25188;51.958;5.842;2022-07-29T11:54:03;1.85;;;0.50;;
39020;SDS011;25188;51.958;5.842;2022-07-29T11:56:33;2.75;;;0.65;;
39020;SDS011;25188;51.958;5.842;2022-07-29T11:59:04;4.07;;;0.63;;
39020;SDS011;25188;51.958;5.842;2022-07-29T12:01:31;4.68;;;0.60;;
39020;SDS011;25188;51.958;5.842;2022-07-29T12:04:06;4.60;;;0.70;;
39020;SDS011;25188;51.958;5.842;2022-07-29T12:06:33;2.90;;;0.70;;
39020;SDS011;25188;51.958;5.842;2022-07-29T12:08:59;1.77;;;0.50;;
39020;SDS011;25188;51.958;5.842;2022-07-29T12:11:25;2.40;;;0.80;;
39020;SDS011;25188;51.958;5.842;2022-07-29T12:13:51;2.63;;;0.73;;
39020;SDS011;25188;51.958;5.842;2022-07-29T12:16:18;2.53;;;0.68;;
39020;SDS011;25188;51.958;5.842;2022-07-29T12:18:54;2.10;;;0.68;;
39020;SDS011;25188;51.958;5.842;2022-07-29T12:21:21;2.88;;;0.63;;
39020;SDS011;25188;51.958;5.842;2022-07-29T12:23:53;3.65;;;0.77;;
39020;SDS011;25188;51.958;5.842;2022-07-29T12:26:19;1.92;;;0.60;;
39020;SDS011;25188;51.958;5.842;2022-07-29T12:28:45;3.60;;;0.50;;
39020;SDS011;25188;51.958;5.842;2022-07-29T12:31:15;2.47;;;0.77;;
39020;SDS011;25188;51.958;5.842;2022-07-29T12:33:41;2.20;;;0.80;;
39020;SDS011;25188;51.958;5.842;2022-07-29T12:36:07;2.65;;;0.60;;
39020;SDS011;25188;51.958;5.842;2022-07-29T12:38:36;3.90;;;0.73;;
39020;SDS011;25188;51.958;5.842;2022-07-29T12:41:02;2.28;;;0.60;;
39020;SDS011;25188;51.958;5.842;2022-07-29T12:43:28;2.03;;;0.63;;
39020;SDS011;25188;51.958;5.842;2022-07-29T12:45:55;4.72;;;0.70;;
39020;SDS011;25188;51.958;5.842;2022-07-29T12:51:04;3.10;;;0.90;;
39020;SDS011;25188;51.958;5.842;2022-07-29T12:53:32;5.75;;;0.60;;
39020;SDS011;25188;51.958;5.842;2022-07-29T12:55:58;2.00;;;0.60;;
39020;SDS011;25188;51.958;5.842;2022-07-29T12:58:34;2.33;;;0.60;;
39020;SDS011;25188;51.958;5.842;2022-07-29T13:01:03;3.25;;;0.70;;
39020;SDS011;25188;51.958;5.842;2022-07-29T13:06:32;2.00;;;0.60;;
39020;SDS011;25188;51.958;5.842;2022-07-29T13:08:59;2.55;;;0.65;;
39020;SDS011;25188;51.958;5.842;2022-07-29T13:11:32;2.20;;;0.70;;
39020;SDS011;25188;51.958;5.842;2022-07-29T13:14:04;2.53;;;0.70;;
39020;SDS011;25188;51.958;5.842;2022-07-29T13:16:31;5.38;;;0.80;;
39020;SDS011;25188;51.958;5.842;2022-07-29T13:19:04;3.33;;;0.68;;
39020;SDS011;25188;51.958;5.842;2022-07-29T13:21:31;2.55;;;0.80;;
39020;SDS011;25188;51.958;5.842;2022-07-29T13:23:57;2.40;;;0.60;;
39020;SDS011;25188;51.958;5.842;2022-07-29T13:26:23;3.15;;;0.70;;
39020;SDS011;25188;51.958;5.842;2022-07-29T13:28:48;1.45;;;0.60;;
39020;SDS011;25188;51.958;5.842;2022-07-29T13:31:14;2.60;;;0.68;;
39020;SDS011;25188;51.958;5.842;2022-07-29T13:33:40;2.15;;;0.73;;
39020;SDS011;25188;51.958;5.842;2022-07-29T13:36:06;3.65;;;0.60;;
39020;SDS011;25188;51.958;5.842;2022-07-29T13:38:32;1.85;;;0.55;;
39020;SDS011;25188;51.958;5.842;2022-07-29T13:40:58;3.92;;;0.68;;
39020;SDS011;25188;51.958;5.842;2022-07-29T13:43:23;3.85;;;0.73;;
39020;SDS011;25188;51.958;5.842;2022-07-29T13:45:49;1.35;;;0.60;;
39020;SDS011;25188;51.958;5.842;2022-07-29T13:48:15;2.55;;;0.60;;
39020;SDS011;25188;51.958;5.842;2022-07-29T13:50:40;3.90;;;0.77;;
39020;SDS011;25188;51.958;5.842;2022-07-29T13:53:06;3.42;;;0.70;;
39020;SDS011;25188;51.958;5.842;2022-07-29T13:55:31;2.92;;;0.80;;
39020;SDS011;25188;51.958;5.842;2022-07-29T13:57:57;3.33;;;0.70;;
39020;SDS011;25188;51.958;5.842;2022-07-29T14:00:23;3.30;;;0.50;;
39020;SDS011;25188;51.958;5.842;2022-07-29T14:02:49;1.55;;;0.65;;
39020;SDS011;25188;51.958;5.842;2022-07-29T14:05:15;3.40;;;1.02;;
39020;SDS011;25188;51.958;5.842;2022-07-29T14:07:40;1.33;;;0.50;;
39020;SDS011;25188;51.958;5.842;2022-07-29T14:10:06;2.13;;;0.57;;
39020;SDS011;25188;51.958;5.842;2022-07-29T14:12:33;1.90;;;0.50;;
39020;SDS011;25188;51.958;5.842;2022-07-29T14:14:58;3.00;;;0.70;;
39020;SDS011;25188;51.958;5.842;2022-07-29T14:17:24;2.35;;;0.68;;
39020;SDS011;25188;51.958;5.842;2022-07-29T14:19:50;1.75;;;0.57;;
39020;SDS011;25188;51.958;5.842;2022-07-29T14:22:15;3.95;;;0.80;;
39020;SDS011;25188;51.958;5.842;2022-07-29T14:24:43;2.42;;;0.60;;
39020;SDS011;25188;51.958;5.842;2022-07-29T14:27:10;2.65;;;0.70;;
39020;SDS011;25188;51.958;5.842;2022-07-29T14:29:36;2.65;;;0.85;;
39020;SDS011;25188;51.958;5.842;2022-07-29T14:32:02;3.17;;;0.60;;
39020;SDS011;25188;51.958;5.842;2022-07-29T14:34:28;4.20;;;0.68;;
39020;SDS011;25188;51.958;5.842;2022-07-29T14:36:54;1.75;;;0.50;;
39020;SDS011;25188;51.958;5.842;2022-07-29T14:39:20;2.95;;;0.70;;
39020;SDS011;25188;51.958;5.842;2022-07-29T14:41:49;2.33;;;0.68;;
39020;SDS011;25188;51.958;5.842;2022-07-29T14:44:15;1.85;;;0.60;;
39020;SDS011;25188;51.958;5.842;2022-07-29T14:46:42;3.90;;;0.88;;
39020;SDS011;25188;51.958;5.842;2022-07-29T14:49:08;2.45;;;0.63;;
39020;SDS011;25188;51.958;5.842;2022-07-29T14:51:34;2.20;;;0.70;;
39020;SDS011;25188;51.958;5.842;2022-07-29T14:53:59;2.22;;;0.65;;
39020;SDS011;25188;51.958;5.842;2022-07-29T14:56:25;2.45;;;0.55;;
39020;SDS011;25188;51.958;5.842;2022-07-29T14:58:51;3.70;;;0.60;;
39020;SDS011;25188;51.958;5.842;2022-07-29T15:01:17;2.78;;;0.73;;
39020;SDS011;25188;51.958;5.842;2022-07-29T15:03:43;2.15;;;0.63;;
39020;SDS011;25188;51.958;5.842;2022-07-29T15:06:08;2.47;;;0.50;;
39020;SDS011;25188;51.958;5.842;2022-07-29T15:08:34;2.25;;;0.60;;
39020;SDS011;25188;51.958;5.842;2022-07-29T15:10:59;1.80;;;0.50;;
39020;SDS011;25188;51.958;5.842;2022-07-29T15:13:25;3.00;;;0.70;;
39020;SDS011;25188;51.958;5.842;2022-07-29T15:15:51;4.72;;;0.75;;
39020;SDS011;25188;51.958;5.842;2022-07-29T15:18:17;2.72;;;0.50;;
39020;SDS011;25188;51.958;5.842;2022-07-29T15:20:43;2.10;;;0.60;;
39020;SDS011;25188;51.958;5.842;2022-07-29T15:23:11;3.53;;;0.80;;
39020;SDS011;25188;51.958;5.842;2022-07-29T15:25:37;3.58;;;0.65;;
39020;SDS011;25188;51.958;5.842;2022-07-29T15:28:03;2.45;;;0.60;;
39020;SDS011;25188;51.958;5.842;2022-07-29T15:30:32;3.47;;;0.70;;
39020;SDS011;25188;51.958;5.842;2022-07-29T15:32:59;3.13;;;0.90;;
39020;SDS011;25188;51.958;5.842;2022-07-29T15:35:25;2.92;;;0.65;;
39020;SDS011;25188;51.958;5.842;2022-07-29T15:37:51;1.83;;;0.77;;
39020;SDS011;25188;51.958;5.842;2022-07-29T15:40:16;2.88;;;0.60;;
39020;SDS011;25188;51.958;5.842;2022-07-29T15:42:42;3.83;;;0.60;;
39020;SDS011;25188;51.958;5.842;2022-07-29T15:45:08;5.00;;;0.70;;
39020;SDS011;25188;51.958;5.842;2022-07-29T15:47:36;3.45;;;0.70;;
39020;SDS011;25188;51.958;5.842;2022-07-29T15:50:02;4.53;;;0.68;;